Time;durP1;ratioP1;P1;durP2;ratioP2;P2;SDS_P1;SDS_P2;PMS_P1;PMS_P2;Temp;Humidity;BMP_temperature;BMP_pressure;BME280_temperature;BME280_humidity;BME280_pressure;Samples;Min_cycle;Max_cycle;Signal;HPM_P1;HPM_P2
2024/04/08 00:01:55;;;;;;;21.00;3.05;;;;;;;14.34;52.09;92800.25;2024975;70;20702;-73
2024/04/08 00:04:21;;;;;;;14.38;2.60;;;;;;;14.36;50.85;92803.16;2028481;70;20600;-73
2024/04/08 00:06:48;;;;;;;23.20;3.78;;;;;;;14.48;51.38;92800.94;2028506;70;20207;-73
2024/04/08 00:09:13;;;;;;;15.57;2.65;;;;;;;14.52;50.10;92805.31;2024996;70;20180;-74
2024/04/08 00:11:39;;;;;;;10.98;2.60;;;;;;;14.48;50.16;92795.28;2028400;70;20228;-74
2024/04/08 00:14:05;;;;;;;12.50;2.75;;;;;;;13.83;51.64;92775.06;2024633;70;20148;-73
2024/04/08 00:16:31;;;;;;;15.82;2.85;;;;;;;14.21;50.82;92781.91;2028336;70;20144;-72
2024/04/08 00:18:56;;;;;;;19.58;2.85;;;;;;;14.22;51.16;92794.72;2028421;70;20520;-73
2024/04/08 00:21:22;;;;;;;23.42;3.60;;;;;;;14.29;51.78;92790.06;2028291;70;20152;-72
2024/04/08 00:23:48;;;;;;;20.42;2.83;;;;;;;14.31;51.25;92792.28;2028055;70;20140;-76
2024/04/08 00:26:14;;;;;;;12.23;3.03;;;;;;;14.31;50.63;92787.34;2027838;70;20173;-76
2024/04/08 00:28:40;;;;;;;17.13;2.75;;;;;;;14.16;51.60;92791.59;2028140;70;20233;-76
2024/04/08 00:31:08;;;;;;;10.98;3.00;;;;;;;14.02;51.43;92790.13;2028140;70;20145;-76
2024/04/08 00:33:36;;;;;;;15.68;3.42;;;;;;;14.08;51.60;92791.19;2024769;70;20573;-75
2024/04/08 00:36:04;;;;;;;14.23;2.88;;;;;;;14.16;52.00;92793.69;2028138;70;20148;-75
2024/04/08 00:38:29;;;;;;;16.92;3.03;;;;;;;14.19;51.96;92789.56;2027691;70;20156;-74
2024/04/08 00:40:58;;;;;;;15.80;3.20;;;;;;;14.12;51.89;92785.00;2028232;70;20147;-72
2024/04/08 00:43:24;;;;;;;14.20;2.70;;;;;;;14.02;51.69;92773.16;2028017;70;20172;-73
2024/04/08 00:45:50;;;;;;;21.27;3.05;;;;;;;14.08;52.65;92779.13;2027735;70;20555;-73
2024/04/08 00:48:17;;;;;;;8.90;2.30;;;;;;;14.05;52.40;92781.13;2028552;70;20167;-71
2024/04/08 00:50:49;;;;;;;21.92;3.38;;;;;;;13.75;52.68;92769.03;2028143;70;20228;-73
2024/04/08 00:53:15;;;;;;;17.67;3.33;;;;;;;13.87;52.75;92786.59;2027723;70;20141;-73
2024/04/08 00:55:42;;;;;;;14.05;2.50;;;;;;;14.07;52.55;92794.66;2028325;70;20172;-72
2024/04/08 00:58:08;;;;;;;21.70;3.38;;;;;;;14.10;52.72;92794.09;2028281;70;20301;-72
2024/04/08 01:00:33;;;;;;;15.88;2.80;;;;;;;14.07;53.16;92791.81;2028192;70;20176;-73
2024/04/08 01:03:03;;;;;;;17.60;2.72;;;;;;;13.99;51.98;92786.47;2028380;70;20139;-73
2024/04/08 01:05:30;;;;;;;14.77;3.00;;;;;;;14.06;53.03;92776.19;2028258;70;20149;-75
2024/04/08 01:07:57;;;;;;;17.73;2.92;;;;;;;14.00;52.13;92782.28;2028313;70;20279;-72
2024/04/08 01:10:23;;;;;;;14.88;3.30;;;;;;;14.05;52.29;92771.91;2027753;70;20147;-72
2024/04/08 01:12:48;;;;;;;20.85;3.20;;;;;;;13.17;53.98;92761.81;2028222;70;20204;-73
2024/04/08 01:15:15;;;;;;;18.85;2.90;;;;;;;13.68;53.07;92778.56;2027722;70;20236;-73
2024/04/08 01:17:41;;;;;;;13.02;2.80;;;;;;;13.75;52.21;92769.03;2027932;70;20544;-74
2024/04/08 01:20:08;;;;;;;16.00;3.03;;;;;;;13.83;51.36;92766.59;2027752;70;20598;-72
2024/04/08 01:22:34;;;;;;;17.00;2.72;;;;;;;13.81;52.01;92755.19;2028382;70;20330;-73
2024/04/08 01:25:04;;;;;;;13.40;2.58;;;;;;;13.91;52.96;92771.94;2028144;70;20149;-71
2024/04/08 01:27:30;;;;;;;17.83;3.22;;;;;;;13.95;51.93;92778.53;2027919;70;20598;-73
2024/04/08 01:29:56;;;;;;;17.23;3.20;;;;;;;13.98;52.10;92773.72;2028068;70;20156;-73
2024/04/08 01:32:22;;;;;;;14.82;3.10;;;;;;;13.89;53.88;92760.53;2027782;70;20179;-74
2024/04/08 01:34:48;;;;;;;12.07;2.78;;;;;;;13.91;52.53;92754.94;2027871;70;20159;-71
2024/04/08 01:37:14;;;;;;;17.17;3.65;;;;;;;13.92;52.39;92759.97;2028187;70;20140;-72
2024/04/08 01:39:40;;;;;;;14.18;3.38;;;;;;;13.88;52.64;92742.06;2027677;70;20172;-76
2024/04/08 01:42:05;;;;;;;17.23;2.80;;;;;;;13.92;53.18;92745.81;2028089;70;20227;-72
2024/04/08 01:44:31;;;;;;;13.05;2.70;;;;;;;13.89;53.46;92752.75;2028605;70;20144;-73
2024/04/08 01:46:57;;;;;;;15.38;3.40;;;;;;;14.09;51.74;92750.19;2029310;70;20236;-72
2024/04/08 01:49:26;;;;;;;17.23;3.83;;;;;;;13.83;52.64;92749.63;2028570;70;20148;-72
2024/04/08 01:51:53;;;;;;;17.77;3.45;;;;;;;13.94;53.08;92748.75;2028811;70;20292;-74
2024/04/08 01:54:20;;;;;;;15.68;2.75;;;;;;;13.71;52.33;92749.03;2029182;70;20168;-72
2024/04/08 01:56:47;;;;;;;17.67;2.67;;;;;;;13.83;52.74;92758.09;2029133;70;20136;-72
2024/04/08 01:59:12;;;;;;;11.57;2.78;;;;;;;13.79;53.60;92755.09;2028639;70;20153;-71
2024/04/08 02:01:38;;;;;;;21.30;3.20;;;;;;;13.80;53.30;92761.47;2029504;70;20183;-73
2024/04/08 02:04:04;;;;;;;21.63;3.20;;;;;;;13.84;52.91;92745.44;2028968;70;20191;-75
2024/04/08 02:06:29;;;;;;;20.67;3.05;;;;;;;13.83;52.06;92743.94;2028494;70;20184;-75
2024/04/08 02:08:55;;;;;;;16.38;2.97;;;;;;;13.82;50.61;92742.50;2028011;70;20141;-75
2024/04/08 02:11:21;;;;;;;19.05;2.75;;;;;;;13.99;50.71;92735.53;2029153;70;20607;-73
2024/04/08 02:13:47;;;;;;;16.60;2.80;;;;;;;13.81;50.78;92743.13;2029193;70;20159;-75
2024/04/08 02:16:14;;;;;;;19.50;3.42;;;;;;;13.90;51.04;92714.59;2029280;70;20280;-74
2024/04/08 02:18:40;;;;;;;16.30;3.45;;;;;;;13.80;51.00;92721.88;2028599;70;20148;-72
2024/04/08 02:21:11;;;;;;;11.82;2.80;;;;;;;13.85;51.91;92734.84;2029219;70;20606;-71
2024/04/08 02:23:36;;;;;;;19.48;2.90;;;;;;;13.65;52.50;92700.63;2029028;70;20180;-73
2024/04/08 02:26:03;;;;;;;20.45;3.20;;;;;;;13.76;52.46;92730.16;2029153;70;20224;-73
2024/04/08 02:28:29;;;;;;;20.50;3.58;;;;;;;13.41;53.50;92743.28;2028885;70;20217;-71
2024/04/08 02:31:03;;;;;;;14.15;3.00;;;;;;;13.72;52.72;92730.69;2028365;70;20164;-72
2024/04/08 02:33:28;;;;;;;11.95;3.00;;;;;;;13.71;53.29;92726.41;2029394;70;20487;-74
2024/04/08 02:36:01;;;;;;;20.95;3.35;;;;;;;13.81;52.40;92734.66;2028617;70;20133;-72
2024/04/08 02:38:27;;;;;;;16.88;3.30;;;;;;;13.86;51.78;92733.47;2029133;70;20156;-75
2024/04/08 02:40:53;;;;;;;21.40;3.05;;;;;;;13.13;53.82;92722.75;2029097;70;20243;-74
2024/04/08 02:43:18;;;;;;;19.77;3.15;;;;;;;13.36;53.51;92721.81;2028869;70;20528;-73
2024/04/08 02:45:44;;;;;;;19.83;3.17;;;;;;;13.52;53.23;92724.03;2028664;70;20148;-73
2024/04/08 02:48:09;;;;;;;19.75;3.15;;;;;;;13.61;52.31;92717.41;2029166;70;20136;-73
2024/04/08 02:50:35;;;;;;;16.48;2.95;;;;;;;13.62;51.71;92722.44;2029101;70;20548;-75
2024/04/08 02:53:00;;;;;;;12.55;3.03;;;;;;;13.66;52.14;92719.06;2028902;70;20144;-73
2024/04/08 02:55:26;;;;;;;16.60;3.28;;;;;;;13.68;53.20;92717.06;2028593;70;20148;-74
2024/04/08 02:57:52;;;;;;;16.38;3.40;;;;;;;13.57;53.10;92711.53;2028035;70;20498;-73
2024/04/08 03:00:17;;;;;;;20.23;8.48;;;;;;;13.16;53.76;92713.03;2028419;70;20156;-74
2024/04/08 03:02:45;;;;;;;17.40;5.88;;;;;;;13.45;53.82;92708.84;2028316;70;20563;-73
2024/04/08 03:05:11;;;;;;;22.58;3.92;;;;;;;13.52;53.29;92713.44;2028402;70;20161;-73
2024/04/08 03:07:37;;;;;;;15.63;3.65;;;;;;;13.53;53.83;92711.34;2028541;70;20143;-72
2024/04/08 03:10:04;;;;;;;23.67;2.90;;;;;;;13.57;52.62;92715.09;2028535;70;20177;-75
2024/04/08 03:12:29;;;;;;;21.13;3.40;;;;;;;13.50;53.05;92709.75;2027982;70;20157;-75
2024/04/08 03:14:57;;;;;;;19.05;3.50;;;;;;;13.12;53.77;92707.16;2027720;70;20268;-73
2024/04/08 03:17:23;;;;;;;16.65;3.70;;;;;;;12.92;54.59;92703.25;2028525;70;20597;-72
2024/04/08 03:19:55;;;;;;;21.98;4.20;;;;;;;12.72;54.67;92709.31;2028680;70;20149;-76
2024/04/08 03:22:21;;;;;;;13.82;3.53;;;;;;;13.06;53.78;92706.13;2028030;70;20227;-76
2024/04/08 03:24:47;;;;;;;22.23;7.28;;;;;;;13.17;53.69;92703.19;2027915;70;20269;-76
2024/04/08 03:27:13;;;;;;;20.55;6.32;;;;;;;13.34;53.27;92690.63;2028401;70;20213;-73
2024/04/08 03:29:38;;;;;;;34.60;12.00;;;;;;;13.22;52.47;92684.34;2028111;70;20156;-74
2024/04/08 03:32:04;;;;;;;28.10;7.25;;;;;;;13.12;53.49;92703.59;2027823;70;20152;-75
2024/04/08 03:34:31;;;;;;;20.23;5.78;;;;;;;13.30;52.87;92698.91;2027969;70;20173;-75
2024/04/08 03:36:58;;;;;;;26.88;6.18;;;;;;;13.36;53.42;92702.03;2028577;70;20157;-73
2024/04/08 03:39:25;;;;;;;20.45;4.90;;;;;;;13.01;53.58;92707.97;2028423;70;20634;-74
2024/04/08 03:41:51;;;;;;;16.52;3.70;;;;;;;12.91;54.22;92713.09;2028521;70;20212;-73
2024/04/08 03:44:16;;;;;;;28.15;6.18;;;;;;;13.06;54.85;92704.03;2028406;70;20160;-76
2024/04/08 03:46:42;;;;;;;18.35;5.47;;;;;;;13.12;54.14;92709.97;2027825;70;20486;-75
2024/04/08 03:49:08;;;;;;;23.30;6.10;;;;;;;13.27;54.19;92713.56;2028542;70;20140;-76
2024/04/08 03:51:33;;;;;;;18.80;5.15;;;;;;;13.01;54.62;92710.81;2028482;70;20164;-76
2024/04/08 03:53:59;;;;;;;19.80;5.70;;;;;;;13.19;53.97;92700.47;2027908;70;20148;-76
2024/04/08 03:56:25;;;;;;;16.08;4.50;;;;;;;13.26;53.83;92701.53;2028579;70;20225;-75
2024/04/08 03:58:51;;;;;;;23.30;4.10;;;;;;;13.39;52.48;92694.41;2028270;70;20183;-75
2024/04/08 04:01:17;;;;;;;20.45;3.95;;;;;;;13.31;53.97;92693.97;2028404;70;20587;-72
2024/04/08 04:03:43;;;;;;;22.60;5.05;;;;;;;13.25;54.61;92694.41;2028378;70;20182;-73
2024/04/08 04:06:09;;;;;;;20.92;4.70;;;;;;;13.28;53.67;92693.13;2028465;70;20157;-70
2024/04/08 04:08:35;;;;;;;20.50;3.83;;;;;;;13.16;55.00;92703.81;2028487;70;20161;-71
2024/04/08 04:11:01;;;;;;;18.73;3.75;;;;;;;13.22;54.15;92699.22;2028380;70;20141;-70
2024/04/08 04:13:26;;;;;;;20.98;4.40;;;;;;;13.12;54.76;92698.69;2028422;70;20244;-75
2024/04/08 04:15:54;;;;;;;23.42;4.13;;;;;;;13.10;54.32;92695.00;2028442;70;20156;-73
2024/04/08 04:18:20;;;;;;;23.30;4.05;;;;;;;13.18;54.39;92701.06;2028213;70;20145;-73
2024/04/08 04:20:48;;;;;;;19.42;3.78;;;;;;;12.96;54.59;92684.44;2028376;70;20238;-74
2024/04/08 04:23:14;;;;;;;18.67;3.65;;;;;;;12.88;54.80;92680.47;2028380;70;20156;-75
2024/04/08 04:25:40;;;;;;;24.40;3.88;;;;;;;12.91;55.10;92701.81;2028456;70;20149;-76
2024/04/08 04:28:06;;;;;;;25.85;3.83;;;;;;;12.91;55.68;92701.81;2028304;70;20152;-75
2024/04/08 04:30:32;;;;;;;21.33;3.70;;;;;;;12.90;55.60;92701.06;2028393;70;20492;-76
2024/04/08 04:33:00;;;;;;;24.98;3.63;;;;;;;12.79;55.59;92704.00;2028299;70;20228;-74
2024/04/08 04:35:29;;;;;;;22.50;4.40;;;;;;;12.69;56.07;92701.38;2027635;70;20247;-72
2024/04/08 04:37:56;;;;;;;20.65;3.78;;;;;;;12.90;55.10;92703.91;2027851;70;20729;-72
2024/04/08 04:40:21;;;;;;;18.52;4.28;;;;;;;12.90;55.32;92701.06;2028204;70;20129;-71
2024/04/08 04:42:48;;;;;;;22.30;4.28;;;;;;;12.84;55.36;92697.94;2028074;70;20533;-72
2024/04/08 04:45:14;;;;;;;19.48;4.13;;;;;;;12.85;55.77;92701.50;2027678;70;20187;-74
2024/04/08 04:47:39;;;;;;;21.20;4.18;;;;;;;12.71;55.68;92707.13;2028164;70;20237;-73
2024/04/08 04:50:05;;;;;;;25.90;4.15;;;;;;;12.88;54.98;92709.47;2028113;70;20165;-75
2024/04/08 04:52:33;;;;;;;15.57;3.60;;;;;;;12.91;55.01;92702.53;2028177;70;20140;-74
2024/04/08 04:54:58;;;;;;;25.65;4.50;;;;;;;12.83;55.12;92701.38;2028279;70;20232;-74
2024/04/08 04:57:24;;;;;;;30.40;4.10;;;;;;;12.87;55.01;92710.78;2028144;70;20240;-75
2024/04/08 04:59:49;;;;;;;22.05;4.30;;;;;;;12.77;54.95;92698.97;2028090;70;20137;-73
2024/04/08 05:02:15;;;;;;;20.80;4.00;;;;;;;12.90;54.29;92697.53;2028248;70;20149;-75
2024/04/08 05:04:43;;;;;;;20.88;4.15;;;;;;;12.96;53.15;92706.31;2028205;70;20157;-74
2024/04/08 05:07:09;;;;;;;24.38;4.32;;;;;;;12.98;53.95;92712.81;2028377;70;20171;-74
2024/04/08 05:09:35;;;;;;;21.90;4.60;;;;;;;12.89;52.94;92708.09;2028282;70;20172;-72
2024/04/08 05:12:00;;;;;;;24.73;4.97;;;;;;;12.57;54.08;92712.03;2028133;70;20145;-72
2024/04/08 05:14:26;;;;;;;18.70;4.32;;;;;;;12.79;54.08;92718.13;2028196;70;20513;-71
2024/04/08 05:16:51;;;;;;;20.90;4.22;;;;;;;12.93;54.41;92722.44;2028387;70;20266;-73
2024/04/08 05:19:17;;;;;;;30.65;4.78;;;;;;;13.04;54.13;92722.97;2028426;70;20268;-71
2024/04/08 05:21:43;;;;;;;21.73;4.93;;;;;;;12.92;53.42;92706.84;2028397;70;20161;-72
2024/04/08 05:24:10;;;;;;;20.83;4.13;;;;;;;13.15;53.55;92728.53;2028113;70;20273;-73
2024/04/08 05:26:37;;;;;;;29.98;5.03;;;;;;;12.67;54.67;92726.69;2028515;70;20231;-75
2024/04/08 05:29:03;;;;;;;27.13;5.05;;;;;;;12.64;54.78;92728.66;2028241;70;20171;-75
2024/04/08 05:31:28;;;;;;;31.65;4.50;;;;;;;12.92;54.89;92726.63;2028442;70;20152;-76
2024/04/08 05:33:54;;;;;;;23.63;4.63;;;;;;;13.03;54.62;92727.88;2028382;70;20145;-73
2024/04/08 05:36:20;;;;;;;18.13;4.90;;;;;;;13.19;53.79;92730.81;2028305;70;20145;-76
2024/04/08 05:38:45;;;;;;;26.55;5.40;;;;;;;13.21;53.90;92731.66;2027544;70;20149;-76
2024/04/08 05:41:11;;;;;;;23.23;4.63;;;;;;;13.34;53.29;92721.00;2028105;70;20161;-72
2024/04/08 05:43:37;;;;;;;21.75;3.33;;;;;;;13.22;53.42;92723.94;2027701;70;20185;-72
2024/04/08 05:46:02;;;;;;;27.98;4.60;;;;;;;12.66;55.02;92722.41;2028305;70;20231;-74
2024/04/08 05:48:28;;;;;;;25.92;4.82;;;;;;;13.04;54.42;92720.88;2028446;70;20166;-76
2024/04/08 05:50:54;;;;;;;26.73;4.20;;;;;;;13.19;54.67;92737.22;2028433;70;20168;-76
2024/04/08 05:53:19;;;;;;;25.15;4.20;;;;;;;13.30;54.21;92743.41;2028502;70;20233;-76
2024/04/08 05:55:45;;;;;;;21.40;3.90;;;;;;;13.41;54.23;92731.25;2028464;70;20155;-75
2024/04/08 05:58:11;;;;;;;25.33;4.47;;;;;;;13.26;53.97;92735.44;2028416;70;20153;-78
2024/04/08 06:00:37;;;;;;;34.60;5.15;;;;;;;13.56;52.97;92735.50;2028253;70;20240;-76
2024/04/08 06:03:03;;;;;;;15.98;4.00;;;;;;;13.54;54.28;92729.78;2028222;70;20177;-75
2024/04/08 06:05:29;;;;;;;29.05;5.05;;;;;;;13.26;55.04;92738.28;2028238;70;20152;-74
2024/04/08 06:07:54;;;;;;;26.00;4.65;;;;;;;13.55;54.47;92743.28;2028407;70;20160;-76
2024/04/08 06:10:22;;;;;;;23.55;4.40;;;;;;;13.64;55.26;92738.75;2027987;70;20590;-77
2024/04/08 06:12:47;;;;;;;27.73;4.53;;;;;;;13.77;55.05;92740.84;2028275;70;20236;-75
2024/04/08 06:15:14;;;;;;;28.17;5.32;;;;;;;13.89;54.95;92732.94;2028246;70;20328;-74
2024/04/08 06:17:41;;;;;;;25.23;5.00;;;;;;;13.93;56.01;92738.09;2028310;70;20149;-72
2024/04/08 06:20:07;;;;;;;28.77;4.40;;;;;;;14.01;53.85;92729.97;2028094;70;20555;-77
2024/04/08 06:22:35;;;;;;;30.88;5.03;;;;;;;14.04;53.48;92733.63;2028276;70;20145;-73
2024/04/08 06:25:05;;;;;;;26.17;4.90;;;;;;;14.06;52.67;92742.94;2028244;70;20624;-77
2024/04/08 06:27:31;;;;;;;31.00;4.68;;;;;;;14.21;52.85;92739.44;2028021;70;20149;-77
2024/04/08 06:29:56;;;;;;;22.55;5.20;;;;;;;14.36;52.19;92740.13;2028243;70;20144;-78
2024/04/08 06:32:22;;;;;;;21.33;4.63;;;;;;;14.23;53.27;92733.16;2028816;70;20161;-77
2024/04/08 06:34:48;;;;;;;26.77;5.65;;;;;;;14.26;52.54;92737.53;2028483;70;20622;-75
2024/04/08 06:37:14;;;;;;;35.90;10.23;;;;;;;13.97;53.72;92733.34;2028558;70;20263;-77
2024/04/08 06:39:41;;;;;;;34.13;10.38;;;;;;;14.26;53.74;92745.31;2028599;70;20141;-75
2024/04/08 06:42:06;;;;;;;32.28;10.63;;;;;;;14.35;53.84;92730.91;2028690;70;20160;-75
2024/04/08 06:44:32;;;;;;;27.02;10.55;;;;;;;14.50;53.61;92735.16;2028353;70;20148;-76
2024/04/08 06:46:58;;;;;;;33.45;11.80;;;;;;;14.53;52.74;92730.31;2028173;70;20747;-76
2024/04/08 06:49:23;;;;;;;35.25;8.23;;;;;;;14.68;53.14;92724.66;2028134;70;20169;-73
2024/04/08 06:51:49;;;;;;;23.35;7.47;;;;;;;14.91;53.21;92720.75;2028504;70;20621;-74
2024/04/08 06:54:15;;;;;;;36.13;6.63;;;;;;;15.18;53.31;92734.00;2028646;70;20564;-75
2024/04/08 06:56:40;;;;;;;30.88;5.53;;;;;;;15.37;52.67;92738.38;2028631;70;20491;-75
2024/04/08 06:59:06;;;;;;;24.98;5.43;;;;;;;15.33;51.83;92728.94;2028418;70;20514;-74
2024/04/08 07:01:33;;;;;;;29.08;6.32;;;;;;;15.34;50.08;92731.13;2028541;70;20151;-76
2024/04/08 07:03:59;;;;;;;30.95;5.82;;;;;;;15.06;50.47;92727.06;2028696;70;20148;-77
2024/04/08 07:06:25;;;;;;;29.92;5.45;;;;;;;15.40;50.78;92727.84;2028538;70;20232;-77
2024/04/08 07:08:50;;;;;;;33.30;6.50;;;;;;;15.65;50.21;92723.97;2028531;70;20155;-75
2024/04/08 07:11:16;;;;;;;32.05;6.25;;;;;;;15.75;51.35;92719.44;2028618;70;20197;-77
2024/04/08 07:13:42;;;;;;;36.17;6.22;;;;;;;15.83;51.24;92721.91;2027736;70;20149;-74
2024/04/08 07:16:07;;;;;;;35.00;8.93;;;;;;;15.95;50.50;92724.53;2028526;70;20618;-76
2024/04/08 07:18:34;;;;;;;38.20;10.52;;;;;;;16.09;49.92;92722.25;2028646;70;20284;-76
2024/04/08 07:20:59;;;;;;;44.05;9.52;;;;;;;16.30;51.62;92720.22;2028202;70;20156;-73
2024/04/08 07:23:25;;;;;;;38.72;8.05;;;;;;;16.63;49.87;92713.69;2028636;70;20149;-72
2024/04/08 07:25:51;;;;;;;33.25;8.13;;;;;;;16.77;49.41;92706.50;2025360;70;20156;-73
2024/04/08 07:28:17;;;;;;;35.00;8.82;;;;;;;16.96;48.45;92716.44;2028463;70;20157;-72
2024/04/08 07:30:43;;;;;;;30.13;8.02;;;;;;;17.03;47.50;92708.84;2028248;70;20145;-72
2024/04/08 07:33:08;;;;;;;33.63;8.27;;;;;;;17.25;47.89;92706.09;2028511;70;20301;-73
2024/04/08 07:35:34;;;;;;;41.38;7.60;;;;;;;17.30;47.66;92701.28;2028622;70;20598;-72
2024/04/08 07:38:00;;;;;;;29.13;6.60;;;;;;;17.57;46.35;92711.50;2028612;70;20583;-72
2024/04/08 07:40:25;;;;;;;26.38;5.88;;;;;;;17.91;47.35;92712.69;2030616;70;20155;-72
2024/04/08 07:42:51;;;;;;;32.40;6.78;;;;;;;17.84;44.39;92713.88;2028409;70;20136;-72
2024/04/08 07:45:16;;;;;;;36.40;6.00;;;;;;;17.90;43.84;92714.09;2028431;70;20554;-73
2024/04/08 07:47:45;;;;;;;28.65;5.63;;;;;;;17.99;44.74;92710.13;2028560;70;20171;-72
2024/04/08 07:50:10;;;;;;;35.85;5.93;;;;;;;18.60;44.31;92705.69;2028589;70;20176;-73
2024/04/08 07:52:39;;;;;;;31.90;5.57;;;;;;;18.88;43.20;92688.00;2028473;70;20151;-73
2024/04/08 07:55:06;;;;;;;27.95;4.85;;;;;;;18.96;40.70;92713.91;2028640;70;20161;-72
2024/04/08 07:57:32;;;;;;;37.67;7.15;;;;;;;18.95;43.34;92712.44;2028528;70;20662;-72
2024/04/08 07:59:58;;;;;;;36.42;6.97;;;;;;;18.56;44.19;92707.69;2027828;70;20522;-72
2024/04/08 08:02:24;;;;;;;41.45;6.85;;;;;;;18.46;43.53;92708.06;2028230;70;20658;-73
2024/04/08 08:04:50;;;;;;;28.60;6.07;;;;;;;19.02;41.21;92711.97;2028507;70;20237;-71
2024/04/08 08:07:15;;;;;;;33.08;5.40;;;;;;;19.29;41.09;92709.91;2028180;70;20160;-72
2024/04/08 08:09:41;;;;;;;36.72;5.97;;;;;;;19.63;41.17;92707.28;2027946;70;20621;-73
2024/04/08 08:12:07;;;;;;;31.77;5.35;;;;;;;19.64;41.15;92705.16;2028458;70;20529;-74
2024/04/08 08:14:32;;;;;;;32.92;5.38;;;;;;;19.57;41.38;92704.25;2027774;70;20533;-72
2024/04/08 08:16:58;;;;;;;35.00;5.93;;;;;;;19.78;40.61;92694.84;2028300;70;20153;-75
2024/04/08 08:19:23;;;;;;;33.08;5.57;;;;;;;19.89;40.59;92713.00;2028357;70;20267;-72
2024/04/08 08:21:51;;;;;;;38.05;5.70;;;;;;;20.04;41.67;92723.38;2028485;70;20527;-72
2024/04/08 08:24:16;;;;;;;33.47;5.70;;;;;;;20.08;42.01;92716.31;2028305;70;20161;-73
2024/04/08 08:26:42;;;;;;;35.88;4.60;;;;;;;20.34;41.27;92708.41;2028567;70;20675;-73
2024/04/08 08:29:07;;;;;;;38.53;5.13;;;;;;;20.01;39.70;92709.72;2025158;70;20141;-71
2024/04/08 08:31:33;;;;;;;24.17;4.95;;;;;;;19.81;43.44;92712.78;2028330;70;20152;-74
2024/04/08 08:33:59;;;;;;;26.10;5.22;;;;;;;20.46;42.86;92702.25;2028224;70;20663;-74
2024/04/08 08:36:25;;;;;;;39.63;4.82;;;;;;;20.80;41.70;92714.56;2028376;70;20227;-75
2024/04/08 08:38:51;;;;;;;28.60;4.97;;;;;;;20.99;40.45;92704.25;2028379;70;20157;-71
2024/04/08 08:41:21;;;;;;;28.27;5.15;;;;;;;21.26;38.55;92696.22;2028249;70;20613;-74
2024/04/08 08:43:46;;;;;;;27.05;4.38;;;;;;;21.62;37.22;92701.97;2028268;70;20216;-74
2024/04/08 08:46:12;;;;;;;28.80;4.72;;;;;;;21.62;37.34;92687.66;2028401;70;20160;-74
2024/04/08 08:48:40;;;;;;;24.23;4.15;;;;;;;21.42;36.22;92693.00;2028329;70;20245;-74
2024/04/08 08:51:09;;;;;;;28.15;4.55;;;;;;;21.36;37.00;92685.00;2028140;70;20209;-72
2024/04/08 08:53:35;;;;;;;27.23;4.32;;;;;;;21.69;38.49;92697.84;2027978;70;20169;-72
2024/04/08 08:56:03;;;;;;;30.15;4.70;;;;;;;21.91;38.61;92691.09;2028314;70;20232;-73
2024/04/08 08:58:30;;;;;;;28.48;4.55;;;;;;;22.10;38.23;92684.25;2028336;70;20583;-73
2024/04/08 09:00:55;;;;;;;27.63;4.93;;;;;;;22.81;36.70;92681.84;2028298;70;20669;-74
2024/04/08 09:03:21;;;;;;;37.03;5.30;;;;;;;23.43;35.41;92680.56;2028461;70;20388;-72
2024/04/08 09:05:47;;;;;;;24.50;3.78;;;;;;;23.63;34.81;92685.84;2028095;70;20252;-74
2024/04/08 09:08:13;;;;;;;29.42;4.13;;;;;;;23.31;34.96;92670.38;2027346;70;20148;-72
2024/04/08 09:10:46;;;;;;;22.45;3.53;;;;;;;23.83;35.38;92677.50;2028191;70;20232;-71
2024/04/08 09:13:23;;;;;;;26.00;4.60;;;;;;;23.75;33.92;92678.13;2028035;70;20172;-74
2024/04/08 09:15:50;;;;;;;25.40;4.13;;;;;;;23.53;33.93;92675.66;2028573;70;20224;-73
2024/04/08 09:18:17;;;;;;;25.73;4.03;;;;;;;23.08;33.88;92669.34;2028263;70;20145;-72
2024/04/08 09:20:43;;;;;;;24.20;4.45;;;;;;;22.92;34.03;92668.41;2028125;70;20172;-74
2024/04/08 09:23:10;;;;;;;28.95;5.00;;;;;;;23.36;34.13;92665.41;2028259;70;20268;-72
2024/04/08 09:25:35;;;;;;;29.75;4.63;;;;;;;23.26;33.70;92668.88;2028310;70;20159;-74
2024/04/08 09:28:01;;;;;;;28.55;4.43;;;;;;;23.78;34.28;92668.09;2028070;70;20160;-72
2024/04/08 09:30:27;;;;;;;22.55;3.83;;;;;;;24.23;33.52;92667.81;2028209;70;20152;-71
2024/04/08 09:32:54;;;;;;;24.45;4.75;;;;;;;24.27;33.49;92657.06;2027683;70;20574;-74
2024/04/08 09:35:20;;;;;;;20.05;3.60;;;;;;;24.92;33.36;92670.56;2027819;70;20613;-74
2024/04/08 09:37:47;;;;;;;22.00;4.30;;;;;;;24.92;32.88;92664.78;2028091;70;20147;-72
2024/04/08 09:40:18;;;;;;;30.30;4.07;;;;;;;25.17;32.45;92659.94;2028213;70;20152;-73
2024/04/08 09:42:46;;;;;;;29.60;4.10;;;;;;;25.15;32.33;92657.75;2028153;70;20247;-73
2024/04/08 09:45:15;;;;;;;25.80;3.97;;;;;;;24.98;32.27;92656.22;2028340;70;20239;-71
2024/04/08 09:47:42;;;;;;;28.23;4.05;;;;;;;25.38;32.75;92647.09;2025286;70;20196;-72
2024/04/08 09:50:12;;;;;;;20.95;4.88;;;;;;;25.85;31.53;92648.03;2028311;70;20164;-72
2024/04/08 09:52:39;;;;;;;23.50;4.25;;;;;;;26.85;30.71;92639.50;2028242;70;20227;-73
2024/04/08 09:55:06;;;;;;;27.05;4.55;;;;;;;26.53;30.65;92634.44;2028086;70;20196;-73
2024/04/08 09:57:39;;;;;;;23.90;4.15;;;;;;;26.24;29.75;92636.56;2027583;70;20229;-73
2024/04/08 10:00:11;;;;;;;24.15;3.90;;;;;;;26.07;30.19;92635.06;2028102;70;20172;-72
2024/04/08 10:02:41;;;;;;;23.10;3.85;;;;;;;26.84;30.04;92622.88;2028132;70;20171;-73
2024/04/08 10:05:07;;;;;;;23.38;3.78;;;;;;;27.00;30.04;92622.13;2028581;70;20260;-70
2024/04/08 10:07:34;;;;;;;19.60;3.90;;;;;;;28.10;29.66;92619.56;2027943;70;20621;-71
2024/04/08 10:10:09;;;;;;;29.95;4.72;;;;;;;28.77;28.78;92615.50;2028645;70;20133;-70
2024/04/08 10:12:35;;;;;;;26.10;3.70;;;;;;;28.66;28.14;92619.22;2028858;70;20169;-75
2024/04/08 10:15:15;;;;;;;31.80;4.40;;;;;;;28.87;27.11;92626.28;2028546;70;20615;-76
2024/04/08 10:17:46;;;;;;;34.30;4.05;;;;;;;29.23;28.79;92624.47;2028633;70;20144;-76
2024/04/08 10:20:15;;;;;;;76.18;22.40;;;;;;;29.05;26.84;92617.44;2028467;70;20179;-74
2024/04/08 10:22:41;;;;;;;30.75;4.55;;;;;;;29.08;27.77;92615.22;2028635;70;20256;-75
2024/04/08 10:25:38;;;;;;;30.38;3.60;;;;;;;30.41;26.49;92608.53;2028599;70;20323;-73
2024/04/08 10:28:10;;;;;;;25.88;4.00;;;;;;;30.99;26.25;92606.16;2028367;70;20263;-77
2024/04/08 10:30:38;;;;;;;25.08;4.15;;;;;;;29.16;27.57;92585.44;2028441;70;20611;-76
2024/04/08 10:33:04;;;;;;;24.35;4.05;;;;;;;29.31;27.00;92592.50;2028609;70;20175;-78
2024/04/08 10:35:30;;;;;;;28.65;3.70;;;;;;;29.15;27.83;92586.91;2028479;70;20370;-77
2024/04/08 10:37:56;;;;;;;25.33;4.07;;;;;;;30.94;26.93;92578.66;2028491;70;20200;-76
2024/04/08 10:40:23;;;;;;;31.30;5.38;;;;;;;29.97;26.33;92580.84;2028689;70;20224;-75
2024/04/08 10:42:52;;;;;;;31.10;4.97;;;;;;;31.80;26.00;92571.91;2028456;70;20617;-76
2024/04/08 10:45:22;;;;;;;37.30;4.80;;;;;;;32.99;25.43;92567.03;2028528;70;20248;-77
2024/04/08 10:47:48;;;;;;;31.00;4.85;;;;;;;32.93;25.21;92563.56;2028950;70;20240;-77
2024/04/08 10:50:13;;;;;;;38.25;5.65;;;;;;;33.78;23.83;92567.09;2028876;70;20168;-77
2024/04/08 10:52:40;;;;;;;29.90;4.18;;;;;;;34.35;22.48;92564.69;2028965;70;20155;-76
2024/04/08 10:55:07;;;;;;;32.28;4.45;;;;;;;34.25;23.32;92556.25;2028637;70;20164;-74
2024/04/08 10:57:33;;;;;;;32.08;4.30;;;;;;;36.36;22.03;92562.88;2028713;70;20179;-73
2024/04/08 10:59:59;;;;;;;38.40;4.75;;;;;;;36.45;21.24;92553.78;2028626;70;20625;-76
2024/04/08 11:02:25;;;;;;;34.10;4.00;;;;;;;36.21;20.93;92543.72;2025321;70;20263;-74
2024/04/08 11:04:53;;;;;;;30.13;4.63;;;;;;;36.88;20.11;92541.75;2027872;70;20179;-78
2024/04/08 11:07:20;;;;;;;24.40;4.18;;;;;;;38.03;20.28;92543.44;2028064;70;20261;-76
2024/04/08 11:09:46;;;;;;;23.02;3.63;;;;;;;37.24;19.46;92541.75;2028549;70;20471;-77
2024/04/08 11:12:16;;;;;;;27.65;3.60;;;;;;;38.45;19.30;92531.25;2028121;70;20190;-76
2024/04/08 11:14:42;;;;;;;18.88;3.83;;;;;;;40.27;19.67;92542.66;2027038;70;20165;-77
2024/04/08 11:17:08;;;;;;;23.20;3.67;;;;;;;38.44;19.06;92529.78;2027905;70;20159;-77
2024/04/08 11:19:37;;;;;;;29.13;4.28;;;;;;;38.15;16.88;92534.06;2028274;70;20587;-77
2024/04/08 11:22:07;;;;;;;31.52;4.22;;;;;;;38.55;17.40;92533.69;2028510;70;20541;-78